Time;durP1;ratioP1;P1;durP2;ratioP2;P2;SDS_P1;SDS_P2;PMS_P1;PMS_P2;Temp;Humidity;BMP_temperature;BMP_pressure;BME280_temperature;BME280_humidity;BME280_pressure;Samples;Min_cycle;Max_cycle;Signal;HPM_P1;HPM_P2
2023/10/31 00:02:08;;;;;;;11.48;10.88;;;;;;;;;;5043375;28;20033;-68
2023/10/31 00:04:34;;;;;;;11.82;11.18;;;;;;;;;;5045272;28;20917;-69
2023/10/31 00:06:59;;;;;;;11.73;11.02;;;;;;;;;;5049698;28;20036;-68
2023/10/31 00:09:25;;;;;;;12.18;11.45;;;;;;;;;;5049441;28;20052;-69
2023/10/31 00:11:50;;;;;;;12.30;11.60;;;;;;;;;;5048819;28;20425;-68
2023/10/31 00:14:16;;;;;;;11.82;11.13;;;;;;;;;;5044305;28;20048;-69
2023/10/31 00:16:42;;;;;;;11.70;10.90;;;;;;;;;;5047982;28;20036;-69
2023/10/31 00:19:07;;;;;;;10.35;9.77;;;;;;;;;;5048858;28;20099;-68
2023/10/31 00:21:33;;;;;;;10.98;10.38;;;;;;;;;;5049970;28;20115;-68
2023/10/31 00:23:58;;;;;;;10.38;9.88;;;;;;;;;;5046129;28;20036;-68
2023/10/31 00:26:24;;;;;;;10.82;10.23;;;;;;;;;;5049564;28;20463;-68
2023/10/31 00:28:52;;;;;;;11.57;10.87;;;;;;;;;;5046815;28;20525;-68
2023/10/31 00:31:18;;;;;;;10.80;10.20;;;;;;;;;;5025898;28;20036;-69
2023/10/31 00:33:43;;;;;;;11.05;10.45;;;;;;;;;;5044927;28;20057;-68
2023/10/31 00:36:09;;;;;;;11.20;10.60;;;;;;;;;;5041112;28;20150;-69
2023/10/31 00:38:35;;;;;;;11.45;10.85;;;;;;;;;;5052449;28;20044;-68
2023/10/31 00:41:00;;;;;;;11.13;10.52;;;;;;;;;;5051685;28;20525;-68
2023/10/31 00:43:26;;;;;;;11.43;10.82;;;;;;;;;;5035503;28;20120;-68
2023/10/31 00:45:51;;;;;;;11.40;10.80;;;;;;;;;;5042136;28;20040;-67
2023/10/31 00:48:17;;;;;;;11.25;10.55;;;;;;;;;;5039088;28;20056;-67
2023/10/31 00:50:43;;;;;;;11.18;10.57;;;;;;;;;;5040528;28;20044;-68
2023/10/31 00:53:10;;;;;;;10.65;10.05;;;;;;;;;;5047097;28;20483;-68
2023/10/31 00:55:35;;;;;;;10.45;9.85;;;;;;;;;;5038761;28;20037;-68
2023/10/31 00:58:01;;;;;;;10.98;10.18;;;;;;;;;;5024974;28;20047;-68
2023/10/31 01:00:28;;;;;;;10.65;10.05;;;;;;;;;;5040057;28;20036;-67
2023/10/31 01:02:53;;;;;;;10.93;10.32;;;;;;;;;;5045145;28;20040;-67
2023/10/31 01:05:19;;;;;;;11.07;10.48;;;;;;;;;;5050486;28;20028;-67
2023/10/31 01:07:44;;;;;;;11.05;10.45;;;;;;;;;;5039384;28;20114;-67
2023/10/31 01:10:10;;;;;;;10.75;10.15;;;;;;;;;;5038173;28;20588;-67
2023/10/31 01:12:36;;;;;;;10.90;10.10;;;;;;;;;;5049558;28;20375;-68
2023/10/31 01:15:02;;;;;;;10.93;10.32;;;;;;;;;;5038130;28;20072;-67
2023/10/31 01:17:28;;;;;;;11.10;10.40;;;;;;;;;;5044496;28;20497;-67
2023/10/31 01:19:53;;;;;;;10.48;9.98;;;;;;;;;;5035454;28;20514;-66
2023/10/31 01:22:19;;;;;;;10.43;9.93;;;;;;;;;;5052482;28;20041;-67
2023/10/31 01:24:44;;;;;;;10.75;10.15;;;;;;;;;;5027472;28;20136;-67
2023/10/31 01:27:10;;;;;;;10.77;10.02;;;;;;;;;;5037790;28;20035;-68
2023/10/31 01:29:35;;;;;;;10.05;9.55;;;;;;;;;;5042656;28;20032;-67
2023/10/31 01:32:01;;;;;;;10.73;9.93;;;;;;;;;;5029443;28;20045;-67
2023/10/31 01:34:27;;;;;;;10.00;9.50;;;;;;;;;;5035398;28;20555;-67
2023/10/31 01:36:53;;;;;;;9.88;9.38;;;;;;;;;;5041900;28;20044;-67
2023/10/31 01:39:18;;;;;;;10.13;9.55;;;;;;;;;;5049109;28;20043;-67
2023/10/31 01:41:44;;;;;;;9.75;9.25;;;;;;;;;;5050770;28;20237;-67
2023/10/31 01:44:10;;;;;;;9.85;9.35;;;;;;;;;;5042317;28;20029;-67
2023/10/31 01:46:36;;;;;;;10.43;9.82;;;;;;;;;;5042881;28;20037;-66
2023/10/31 01:49:02;;;;;;;9.80;9.20;;;;;;;;;;5047997;28;20521;-67
2023/10/31 01:51:28;;;;;;;10.35;9.85;;;;;;;;;;5044899;28;20128;-67
2023/10/31 01:53:56;;;;;;;10.00;9.50;;;;;;;;;;5047937;28;20323;-67
2023/10/31 01:56:23;;;;;;;10.30;9.60;;;;;;;;;;5049991;28;20440;-67
2023/10/31 01:58:49;;;;;;;10.18;9.68;;;;;;;;;;5027510;28;20098;-68
2023/10/31 02:01:16;;;;;;;10.20;9.70;;;;;;;;;;5038866;28;20040;-67
2023/10/31 02:03:41;;;;;;;16.23;10.27;;;;;;;;;;5049239;28;20058;-67
2023/10/31 02:06:07;;;;;;;10.95;10.35;;;;;;;;;;5038059;28;20031;-67
2023/10/31 02:08:32;;;;;;;11.00;10.40;;;;;;;;;;5042960;28;20103;-68
2023/10/31 02:10:58;;;;;;;10.93;10.32;;;;;;;;;;5039667;28;20514;-68
2023/10/31 02:13:23;;;;;;;10.85;10.25;;;;;;;;;;5040558;28;20048;-68
2023/10/31 02:15:49;;;;;;;10.60;9.88;;;;;;;;;;5054247;28;20036;-67
2023/10/31 02:18:15;;;;;;;10.68;10.07;;;;;;;;;;5050561;28;20048;-68
2023/10/31 02:20:41;;;;;;;10.77;10.18;;;;;;;;;;5041152;28;20615;-67
2023/10/31 02:23:07;;;;;;;10.40;9.73;;;;;;;;;;5039772;28;20111;-67
2023/10/31 02:25:33;;;;;;;10.60;10.00;;;;;;;;;;5046141;28;20032;-67
2023/10/31 02:27:59;;;;;;;10.73;10.23;;;;;;;;;;5038817;28;20028;-68
2023/10/31 02:30:25;;;;;;;10.10;9.60;;;;;;;;;;5046583;28;20036;-67
2023/10/31 02:32:51;;;;;;;11.15;10.55;;;;;;;;;;5045197;28;20507;-67
2023/10/31 02:35:18;;;;;;;11.70;10.77;;;;;;;;;;5039942;28;20079;-68
2023/10/31 02:37:45;;;;;;;11.43;10.82;;;;;;;;;;5055894;28;20031;-68
2023/10/31 02:40:12;;;;;;;11.33;10.73;;;;;;;;;;5047056;28;20064;-68
2023/10/31 02:42:38;;;;;;;10.60;9.88;;;;;;;;;;5055510;28;20064;-68
2023/10/31 02:45:05;;;;;;;11.27;10.68;;;;;;;;;;5047685;28;20040;-67
2023/10/31 02:47:31;;;;;;;12.15;11.35;;;;;;;;;;5047913;28;20079;-67
2023/10/31 02:49:56;;;;;;;11.23;10.32;;;;;;;;;;5040727;28;20048;-67
2023/10/31 02:52:22;;;;;;;11.05;10.45;;;;;;;;;;5037095;28;20064;-66
2023/10/31 02:54:48;;;;;;;10.13;9.63;;;;;;;;;;5042358;28;20037;-67
2023/10/31 02:57:14;;;;;;;11.00;10.35;;;;;;;;;;5028669;28;20046;-67
2023/10/31 02:59:39;;;;;;;10.90;10.30;;;;;;;;;;5046168;28;20037;-67
2023/10/31 03:02:05;;;;;;;11.52;10.70;;;;;;;;;;5023679;28;22644;-68
2023/10/31 03:04:30;;;;;;;11.32;10.73;;;;;;;;;;5042908;28;20040;-68
2023/10/31 03:06:56;;;;;;;11.18;10.45;;;;;;;;;;5049596;28;20036;-67
2023/10/31 03:09:22;;;;;;;10.57;10.00;;;;;;;;;;5031378;28;20079;-68
2023/10/31 03:11:48;;;;;;;10.32;9.82;;;;;;;;;;5043111;28;20041;-67
2023/10/31 03:14:13;;;;;;;10.88;10.02;;;;;;;;;;5033776;28;20036;-67
2023/10/31 03:16:39;;;;;;;10.88;10.10;;;;;;;;;;5033718;28;20050;-67
2023/10/31 03:19:05;;;;;;;10.75;9.90;;;;;;;;;;5038500;28;20036;-70
2023/10/31 03:21:30;;;;;;;11.10;10.50;;;;;;;;;;5049209;28;20025;-68
2023/10/31 03:23:56;;;;;;;10.73;10.10;;;;;;;;;;5039082;28;20028;-67
2023/10/31 03:26:22;;;;;;;10.55;9.95;;;;;;;;;;5046547;28;20032;-67
2023/10/31 03:28:48;;;;;;;11.23;10.52;;;;;;;;;;5029519;28;20064;-66
2023/10/31 03:31:14;;;;;;;11.02;10.32;;;;;;;;;;5030405;28;20082;-68
2023/10/31 03:33:40;;;;;;;10.88;10.18;;;;;;;;;;5030379;28;20036;-67
2023/10/31 03:36:06;;;;;;;11.10;10.50;;;;;;;;;;5037949;28;20418;-67
2023/10/31 03:38:32;;;;;;;10.88;10.23;;;;;;;;;;5041911;28;20036;-67
2023/10/31 03:40:58;;;;;;;10.63;10.02;;;;;;;;;;5040380;28;20501;-67
2023/10/31 03:43:24;;;;;;;10.48;9.88;;;;;;;;;;5047017;28;20062;-68
2023/10/31 03:45:51;;;;;;;10.75;10.05;;;;;;;;;;5035194;28;20454;-68
2023/10/31 03:48:17;;;;;;;10.70;9.90;;;;;;;;;;5052649;28;20045;-67
2023/10/31 03:50:43;;;;;;;10.77;10.07;;;;;;;;;;5022703;28;20048;-67
2023/10/31 03:53:08;;;;;;;10.30;9.68;;;;;;;;;;5033646;28;20032;-68
2023/10/31 03:55:34;;;;;;;10.95;10.32;;;;;;;;;;5049114;28;20029;-67
2023/10/31 03:58:00;;;;;;;10.65;10.05;;;;;;;;;;5036938;28;20032;-68
2023/10/31 04:00:26;;;;;;;11.40;10.48;;;;;;;;;;5052108;28;20060;-67
2023/10/31 04:02:51;;;;;;;10.25;9.68;;;;;;;;;;5032373;28;20068;-67
2023/10/31 04:05:18;;;;;;;10.70;10.07;;;;;;;;;;5045118;28;20363;-67
2023/10/31 04:07:45;;;;;;;11.05;10.45;;;;;;;;;;5030871;28;20041;-67
2023/10/31 04:10:11;;;;;;;11.05;10.45;;;;;;;;;;5032232;28;20033;-67
2023/10/31 04:12:38;;;;;;;10.52;9.88;;;;;;;;;;5047638;28;20116;-68
2023/10/31 04:15:05;;;;;;;10.30;9.60;;;;;;;;;;5019161;28;20033;-68
2023/10/31 04:17:30;;;;;;;10.60;10.00;;;;;;;;;;5051703;28;20099;-67
2023/10/31 04:19:56;;;;;;;11.27;10.48;;;;;;;;;;5042992;28;20029;-68
2023/10/31 04:22:22;;;;;;;10.80;10.20;;;;;;;;;;5057434;28;20044;-68
2023/10/31 04:24:47;;;;;;;10.75;10.15;;;;;;;;;;5056431;28;20508;-67
2023/10/31 04:27:13;;;;;;;10.73;10.13;;;;;;;;;;5050005;28;20119;-68
2023/10/31 04:29:38;;;;;;;11.32;10.73;;;;;;;;;;5049143;28;20032;-67
2023/10/31 04:32:04;;;;;;;10.85;10.15;;;;;;;;;;5054101;28;20051;-67
2023/10/31 04:34:30;;;;;;;10.50;9.90;;;;;;;;;;5048742;28;20036;-67
2023/10/31 04:36:55;;;;;;;10.13;9.52;;;;;;;;;;5053282;28;20109;-68
2023/10/31 04:39:21;;;;;;;10.52;10.02;;;;;;;;;;5054063;28;20033;-68
2023/10/31 04:41:46;;;;;;;10.15;9.65;;;;;;;;;;5044296;28;20491;-68
2023/10/31 04:44:12;;;;;;;10.93;10.05;;;;;;;;;;5043542;28;20029;-67
2023/10/31 04:46:37;;;;;;;10.07;9.48;;;;;;;;;;5049645;28;20510;-68
2023/10/31 04:49:03;;;;;;;10.35;9.65;;;;;;;;;;5046618;28;20427;-67
2023/10/31 04:51:38;;;;;;;9.98;9.27;;;;;;;;;;5042507;28;20039;-67
2023/10/31 04:54:04;;;;;;;9.52;9.02;;;;;;;;;;5054763;28;20143;-67
2023/10/31 04:56:30;;;;;;;9.75;9.15;;;;;;;;;;5046483;28;20040;-68
2023/10/31 04:58:55;;;;;;;10.15;9.65;;;;;;;;;;5049894;28;20044;-67
2023/10/31 05:01:21;;;;;;;10.07;9.57;;;;;;;;;;5043016;28;20032;-68
2023/10/31 05:03:46;;;;;;;10.55;9.93;;;;;;;;;;5043084;28;20458;-67
2023/10/31 05:06:12;;;;;;;10.48;9.90;;;;;;;;;;5046643;28;20086;-68
2023/10/31 05:08:37;;;;;;;10.55;9.85;;;;;;;;;;5044072;28;21080;-67
2023/10/31 05:11:03;;;;;;;10.32;9.55;;;;;;;;;;5043540;28;20037;-67
2023/10/31 05:13:29;;;;;;;10.55;9.90;;;;;;;;;;5041945;28;20024;-67
2023/10/31 05:15:55;;;;;;;10.98;10.38;;;;;;;;;;5049594;28;20040;-68
2023/10/31 05:18:20;;;;;;;10.38;9.85;;;;;;;;;;5043102;28;20045;-67
2023/10/31 05:20:46;;;;;;;10.40;9.80;;;;;;;;;;5046222;28;20680;-68
2023/10/31 05:23:12;;;;;;;10.88;10.20;;;;;;;;;;5040331;28;20425;-67
2023/10/31 05:25:37;;;;;;;10.55;9.95;;;;;;;;;;5053855;28;20033;-68
2023/10/31 05:28:04;;;;;;;11.88;11.07;;;;;;;;;;5053854;28;20031;-67
2023/10/31 05:30:30;;;;;;;11.13;10.52;;;;;;;;;;5055716;28;20090;-67
2023/10/31 05:32:56;;;;;;;11.27;10.25;;;;;;;;;;5044076;28;20490;-68
2023/10/31 05:35:22;;;;;;;10.50;9.85;;;;;;;;;;5045380;28;20036;-68
2023/10/31 05:37:48;;;;;;;11.32;10.63;;;;;;;;;;5052015;28;20044;-68
2023/10/31 05:40:15;;;;;;;10.35;9.75;;;;;;;;;;5032732;28;20036;-67
2023/10/31 05:42:42;;;;;;;11.32;10.38;;;;;;;;;;5048694;28;20500;-68
2023/10/31 05:45:08;;;;;;;10.88;10.27;;;;;;;;;;5050079;28;20108;-68
2023/10/31 05:47:34;;;;;;;10.60;9.95;;;;;;;;;;5047092;28;20378;-68
2023/10/31 05:49:59;;;;;;;11.18;10.57;;;;;;;;;;5050014;28;20082;-68
2023/10/31 05:52:29;;;;;;;9.90;9.40;;;;;;;;;;5043546;28;20727;-68
2023/10/31 05:54:55;;;;;;;10.90;10.18;;;;;;;;;;5049692;28;20405;-68
2023/10/31 05:57:21;;;;;;;10.40;9.80;;;;;;;;;;5046899;28;20120;-68
2023/10/31 05:59:46;;;;;;;10.55;9.85;;;;;;;;;;5041944;28;20041;-69
2023/10/31 06:02:13;;;;;;;11.27;10.68;;;;;;;;;;5043108;28;20117;-67
2023/10/31 06:04:39;;;;;;;10.57;9.98;;;;;;;;;;5047523;28;20038;-68
2023/10/31 06:07:04;;;;;;;11.35;10.55;;;;;;;;;;5050606;28;20024;-69
2023/10/31 06:09:30;;;;;;;11.27;10.48;;;;;;;;;;5044644;28;20055;-67
2023/10/31 06:11:55;;;;;;;10.55;9.95;;;;;;;;;;5049816;28;20040;-67
2023/10/31 06:14:21;;;;;;;11.85;11.00;;;;;;;;;;5046464;28;20039;-68
2023/10/31 06:16:46;;;;;;;9.68;9.10;;;;;;;;;;5046191;28;20090;-68
2023/10/31 06:19:12;;;;;;;10.00;9.50;;;;;;;;;;5046423;28;20807;-67
2023/10/31 06:21:38;;;;;;;9.73;9.23;;;;;;;;;;5049567;28;20036;-67
2023/10/31 06:24:04;;;;;;;10.05;9.35;;;;;;;;;;5052621;28;20131;-68
2023/10/31 06:26:29;;;;;;;11.45;9.82;;;;;;;;;;5053389;28;20037;-68
2023/10/31 06:28:55;;;;;;;12.45;10.50;;;;;;;;;;5044778;28;20043;-68
2023/10/31 06:31:20;;;;;;;10.73;10.02;;;;;;;;;;5041751;28;20068;-68
2023/10/31 06:33:46;;;;;;;10.75;9.85;;;;;;;;;;5050306;28;20086;-68
2023/10/31 06:36:12;;;;;;;10.88;10.02;;;;;;;;;;5043599;28;20562;-68
2023/10/31 06:38:37;;;;;;;10.27;9.57;;;;;;;;;;5045102;28;20035;-68
2023/10/31 06:41:03;;;;;;;10.80;10.00;;;;;;;;;;5043037;28;20091;-68
2023/10/31 06:43:29;;;;;;;9.85;9.32;;;;;;;;;;5048734;28;20507;-68
2023/10/31 06:45:55;;;;;;;10.90;10.30;;;;;;;;;;5050152;28;20118;-68
2023/10/31 06:48:20;;;;;;;10.25;9.55;;;;;;;;;;5050639;28;20389;-68
2023/10/31 06:50:46;;;;;;;10.02;9.43;;;;;;;;;;5047083;28;20140;-68
2023/10/31 06:53:12;;;;;;;10.02;9.32;;;;;;;;;;5049397;28;20037;-67
2023/10/31 06:55:37;;;;;;;10.15;9.65;;;;;;;;;;5049924;28;20085;-68
2023/10/31 06:58:03;;;;;;;9.95;9.45;;;;;;;;;;5047168;28;20753;-68
2023/10/31 07:00:29;;;;;;;10.57;9.40;;;;;;;;;;5040681;28;20612;-68
2023/10/31 07:02:54;;;;;;;9.65;9.15;;;;;;;;;;5047433;28;20032;-69
2023/10/31 07:05:20;;;;;;;10.45;9.85;;;;;;;;;;5045535;28;20696;-68
2023/10/31 07:07:47;;;;;;;9.90;9.30;;;;;;;;;;5043557;28;20036;-68
2023/10/31 07:10:13;;;;;;;10.43;9.85;;;;;;;;;;5045202;28;20036;-68
2023/10/31 07:12:38;;;;;;;10.30;9.70;;;;;;;;;;5045157;28;20033;-68
2023/10/31 07:15:05;;;;;;;9.43;8.88;;;;;;;;;;5042826;28;20120;-68
2023/10/31 07:17:30;;;;;;;9.88;9.32;;;;;;;;;;5046285;28;20033;-68
2023/10/31 07:19:56;;;;;;;10.18;9.60;;;;;;;;;;5041166;28;20110;-68
2023/10/31 07:22:24;;;;;;;9.90;9.20;;;;;;;;;;5049019;28;20041;-69
2023/10/31 07:24:52;;;;;;;10.10;9.60;;;;;;;;;;5043706;28;20454;-68
2023/10/31 07:27:18;;;;;;;9.73;9.23;;;;;;;;;;5047233;28;20753;-68
2023/10/31 07:29:44;;;;;;;10.15;9.30;;;;;;;;;;5056351;28;20028;-68
2023/10/31 07:32:09;;;;;;;10.15;9.38;;;;;;;;;;5043107;28;20044;-67
2023/10/31 07:34:35;;;;;;;10.07;9.23;;;;;;;;;;5041552;28;20040;-68
2023/10/31 07:37:02;;;;;;;9.98;9.48;;;;;;;;;;5044890;28;20491;-68
2023/10/31 07:39:28;;;;;;;10.65;9.68;;;;;;;;;;5045587;28;20153;-69
2023/10/31 07:41:53;;;;;;;9.93;9.25;;;;;;;;;;5055461;28;20041;-68
2023/10/31 07:44:19;;;;;;;10.32;9.50;;;;;;;;;;5053535;28;20033;-69
2023/10/31 07:46:44;;;;;;;10.05;9.38;;;;;;;;;;5047766;28;20091;-68
2023/10/31 07:49:10;;;;;;;10.00;9.40;;;;;;;;;;5054035;28;20029;-68
2023/10/31 07:51:36;;;;;;;9.93;9.32;;;;;;;;;;5051359;28;20093;-68
2023/10/31 07:54:01;;;;;;;10.55;9.65;;;;;;;;;;5048312;28;20029;-68
2023/10/31 07:56:28;;;;;;;10.38;9.57;;;;;;;;;;5052104;28;20173;-68
2023/10/31 07:58:54;;;;;;;10.35;9.65;;;;;;;;;;5051379;28;20083;-68
2023/10/31 08:01:21;;;;;;;9.70;9.20;;;;;;;;;;5046387;28;20040;-68
2023/10/31 08:03:47;;;;;;;10.07;9.48;;;;;;;;;;5057944;28;20029;-70
2023/10/31 08:06:13;;;;;;;10.35;9.65;;;;;;;;;;5055870;28;20044;-69
2023/10/31 08:08:39;;;;;;;10.57;9.93;;;;;;;;;;5056135;28;20037;-69
2023/10/31 08:11:08;;;;;;;10.57;9.88;;;;;;;;;;5053125;28;20052;-69
2023/10/31 08:13:33;;;;;;;10.52;9.65;;;;;;;;;;5057317;28;20033;-69
2023/10/31 08:15:59;;;;;;;9.73;9.23;;;;;;;;;;5055643;28;20474;-69
2023/10/31 08:18:24;;;;;;;10.10;9.40;;;;;;;;;;5058984;28;20076;-67
2023/10/31 08:20:50;;;;;;;10.15;9.45;;;;;;;;;;5056889;28;20108;-69
2023/10/31 08:23:17;;;;;;;10.27;9.65;;;;;;;;;;5057074;28;20040;-68
2023/10/31 08:25:43;;;;;;;10.25;9.65;;;;;;;;;;5052366;28;20033;-69
2023/10/31 08:28:09;;;;;;;10.38;9.68;;;;;;;;;;5053185;28;20040;-68
2023/10/31 08:30:35;;;;;;;10.70;9.90;;;;;;;;;;5051591;28;20028;-69
2023/10/31 08:33:01;;;;;;;10.70;9.80;;;;;;;;;;5040560;28;20122;-69
2023/10/31 08:35:27;;;;;;;9.80;9.20;;;;;;;;;;5051513;28;20041;-69
2023/10/31 08:37:53;;;;;;;10.70;9.90;;;;;;;;;;5048422;28;20036;-70
2023/10/31 08:40:19;;;;;;;10.27;9.57;;;;;;;;;;5050924;28;20094;-70
2023/10/31 08:42:45;;;;;;;10.70;9.70;;;;;;;;;;5054092;28;20041;-70
2023/10/31 08:45:11;;;;;;;10.10;9.50;;;;;;;;;;5054283;28;20036;-68
2023/10/31 08:47:36;;;;;;;9.77;9.25;;;;;;;;;;5047409;28;20650;-69
2023/10/31 08:50:02;;;;;;;10.40;9.80;;;;;;;;;;5047291;28;20040;-69
2023/10/31 08:52:28;;;;;;;9.85;9.05;;;;;;;;;;5051094;28;20406;-69
2023/10/31 08:54:53;;;;;;;11.18;10.27;;;;;;;;;;5054215;28;20051;-70
2023/10/31 08:57:19;;;;;;;9.82;9.18;;;;;;;;;;5044715;28;20116;-69
2023/10/31 08:59:44;;;;;;;10.63;9.68;;;;;;;;;;5050463;28;20037;-69
2023/10/31 09:02:10;;;;;;;9.73;9.18;;;;;;;;;;5049871;28;20116;-70
2023/10/31 09:04:35;;;;;;;9.77;9.18;;;;;;;;;;5049103;28;20115;-69
2023/10/31 09:07:01;;;;;;;9.45;8.75;;;;;;;;;;5043469;28;20036;-70
2023/10/31 09:09:26;;;;;;;9.93;9.32;;;;;;;;;;5051125;28;20036;-70
2023/10/31 09:11:52;;;;;;;9.57;9.00;;;;;;;;;;5049067;28;20056;-70
2023/10/31 09:14:18;;;;;;;10.25;9.35;;;;;;;;;;5053261;28;20144;-70
2023/10/31 09:16:44;;;;;;;9.75;9.15;;;;;;;;;;5046744;28;20040;-70
2023/10/31 09:19:09;;;;;;;8.93;8.43;;;;;;;;;;5055069;28;20037;-69
2023/10/31 09:21:35;;;;;;;9.70;8.80;;;;;;;;;;5054801;28;20047;-69
2023/10/31 09:24:02;;;;;;;11.05;10.15;;;;;;;;;;5051379;28;20033;-70
2023/10/31 09:26:28;;;;;;;10.43;9.48;;;;;;;;;;5047631;28;21328;-70
2023/10/31 09:28:53;;;;;;;10.05;9.35;;;;;;;;;;5050569;28;20028;-69
2023/10/31 09:31:19;;;;;;;10.18;9.57;;;;;;;;;;5051515;28;20041;-69
2023/10/31 09:33:46;;;;;;;9.50;8.90;;;;;;;;;;5053085;28;20029;-70
2023/10/31 09:36:12;;;;;;;9.98;9.23;;;;;;;;;;5046647;28;20033;-69
2023/10/31 09:38:38;;;;;;;9.85;9.05;;;;;;;;;;5052734;28;20453;-70
2023/10/31 09:41:04;;;;;;;10.73;9.13;;;;;;;;;;5049020;28;20063;-70
2023/10/31 09:43:30;;;;;;;11.13;9.55;;;;;;;;;;5051255;28;20078;-70
2023/10/31 09:45:57;;;;;;;10.07;9.48;;;;;;;;;;5052846;28;20040;-69
2023/10/31 09:48:23;;;;;;;9.93;9.20;;;;;;;;;;5047002;28;20040;-70
2023/10/31 09:50:50;;;;;;;10.38;9.60;;;;;;;;;;5045864;28;20036;-70
2023/10/31 09:53:18;;;;;;;10.35;9.48;;;;;;;;;;5046946;28;20041;-70
2023/10/31 09:55:44;;;;;;;10.07;9.37;;;;;;;;;;5042552;28;20398;-70
2023/10/31 09:58:11;;;;;;;10.00;9.20;;;;;;;;;;5052908;28;20111;-70
2023/10/31 10:00:37;;;;;;;10.30;9.60;;;;;;;;;;5051649;28;20128;-70
2023/10/31 10:03:09;;;;;;;10.70;9.65;;;;;;;;;;5051774;28;20028;-70
2023/10/31 10:05:39;;;;;;;9.73;9.02;;;;;;;;;;5052380;28;20029;-70
2023/10/31 10:08:05;;;;;;;10.32;9.45;;;;;;;;;;5051076;28;20071;-71
2023/10/31 10:10:31;;;;;;;9.70;9.10;;;;;;;;;;5049233;28;20069;-71
2023/10/31 10:12:58;;;;;;;9.40;8.75;;;;;;;;;;5046188;28;20079;-70
2023/10/31 10:15:24;;;;;;;10.13;8.90;;;;;;;;;;5046202;28;20031;-71
2023/10/31 10:17:51;;;;;;;10.68;9.88;;;;;;;;;;5042615;28;20106;-71
2023/10/31 10:20:18;;;;;;;13.82;9.10;;;;;;;;;;5040094;28;20038;-72
2023/10/31 10:22:44;;;;;;;10.02;9.18;;;;;;;;;;5054366;28;20055;-71
2023/10/31 10:25:20;;;;;;;9.95;9.27;;;;;;;;;;5046155;28;21380;-71
2023/10/31 10:27:47;;;;;;;9.98;9.10;;;;;;;;;;5036033;28;20045;-70
2023/10/31 10:30:13;;;;;;;9.95;9.07;;;;;;;;;;5043346;28;20045;-71
2023/10/31 10:32:39;;;;;;;9.65;8.95;;;;;;;;;;5043483;28;20516;-71
2023/10/31 10:35:06;;;;;;;9.65;8.95;;;;;;;;;;5043016;28;20028;-69
2023/10/31 10:37:32;;;;;;;13.07;9.60;;;;;;;;;;5046516;28;20075;-68
2023/10/31 10:39:59;;;;;;;10.13;9.20;;;;;;;;;;5044321;28;20072;-70
2023/10/31 10:42:33;;;;;;;9.88;9.15;;;;;;;;;;5044544;28;20048;-70
2023/10/31 10:45:04;;;;;;;10.30;9.60;;;;;;;;;;5051875;28;20103;-71
2023/10/31 10:47:35;;;;;;;9.95;9.23;;;;;;;;;;5045507;28;20387;-71
2023/10/31 10:50:02;;;;;;;9.55;8.75;;;;;;;;;;5053306;28;20105;-71
2023/10/31 10:52:54;;;;;;;10.02;9.32;;;;;;;;;;5049212;28;20033;-70
2023/10/31 10:55:25;;;;;;;9.82;9.23;;;;;;;;;;5047187;28;20041;-71
2023/10/31 10:58:00;;;;;;;9.82;9.20;;;;;;;;;;5048013;28;20113;-71
2023/10/31 11:00:26;;;;;;;9.85;9.23;;;;;;;;;;5045783;28;20044;-71
2023/10/31 11:02:56;;;;;;;9.70;9.00;;;;;;;;;;5047034;28;20035;-71
2023/10/31 11:05:24;;;;;;;9.93;9.10;;;;;;;;;;5042717;28;20112;-70
2023/10/31 11:07:51;;;;;;;10.20;9.43;;;;;;;;;;5044457;28;20044;-71
2023/10/31 11:10:17;;;;;;;10.50;9.50;;;;;;;;;;5048310;28;20131;-71
2023/10/31 11:12:43;;;;;;;10.38;9.30;;;;;;;;;;5043931;28;20544;-69
2023/10/31 11:15:11;;;;;;;9.93;9.23;;;;;;;;;;5046185;28;20041;-68
2023/10/31 11:17:42;;;;;;;9.43;8.82;;;;;;;;;;5044753;28;20039;-69
2023/10/31 11:20:10;;;;;;;10.38;9.55;;;;;;;;;;5042936;28;20033;-69
2023/10/31 11:22:39;;;;;;;9.23;8.73;;;;;;;;;;5042234;28;20033;-69
2023/10/31 11:25:08;;;;;;;13.25;9.50;;;;;;;;;;5045645;28;20029;-71
2023/10/31 11:27:37;;;;;;;9.65;8.85;;;;;;;;;;5023572;28;20040;-71
2023/10/31 11:30:06;;;;;;;;;;;;;;;;;;5039198;28;20029;-70
2023/10/31 11:32:33;;;;;;;;;;;;;;;;;;5041286;28;19916;-70
2023/10/31 11:34:59;;;;;;;9.75;8.73;;;;;;;;;;5042092;28;19966;-71
2023/10/31 11:37:27;;;;;;;9.10;8.50;;;;;;;;;;5041750;28;20746;-71
2023/10/31 11:40:22;;;;;;;8.93;8.32;;;;;;;;;;5037688;28;20449;-70
2023/10/31 11:42:56;;;;;;;9.52;8.73;;;;;;;;;;5045518;28;20109;-71
2023/10/31 11:45:36;;;;;;;10.05;9.45;;;;;;;;;;5042842;28;20040;-70
2023/10/31 11:48:04;;;;;;;10.60;9.57;;;;;;;;;;5047081;28;20043;-70
2023/10/31 11:50:30;;;;;;;10.07;9.32;;;;;;;;;;5040961;28;20036;-70
2023/10/31 11:53:00;;;;;;;9.98;9.05;;;;;;;;;;5041401;28;20048;-71
2023/10/31 11:55:25;;;;;;;9.13;8.48;;;;;;;;;;5037358;28;20103;-71
2023/10/31 11:57:51;;;;;;;10.18;9.18;;;;;;;;;;5042640;28;20108;-71
2023/10/31 12:00:23;;;;;;;9.55;8.73;;;;;;;;;;5041184;28;20044;-72
2023/10/31 12:03:02;;;;;;;9.45;8.65;;;;;;;;;;5038458;28;20183;-71
2023/10/31 12:05:28;;;;;;;8.77;8.27;;;;;;;;;;5039969;28;20124;-71
2023/10/31 12:07:54;;;;;;;9.77;9.05;;;;;;;;;;5042726;28;20513;-70
2023/10/31 12:10:30;;;;;;;10.18;9.18;;;;;;;;;;5042086;28;20052;-70
2023/10/31 12:12:58;;;;;;;9.88;9.18;;;;;;;;;;5044788;28;20494;-70
2023/10/31 12:15:24;;;;;;;9.82;9.05;;;;;;;;;;5040807;28;20033;-70
2023/10/31 12:17:50;;;;;;;9.82;9.10;;;;;;;;;;5048498;28;20044;-70
2023/10/31 12:20:16;;;;;;;9.60;8.68;;;;;;;;;;5040988;28;20032;-70
2023/10/31 12:22:43;;;;;;;9.13;8.38;;;;;;;;;;5042813;28;20409;-70
2023/10/31 12:25:10;;;;;;;8.95;8.35;;;;;;;;;;5042238;28;20036;-70
2023/10/31 12:27:49;;;;;;;9.32;8.57;;;;;;;;;;5047056;28;20043;-70
2023/10/31 12:30:18;;;;;;;;;;;;;;;;;;5044354;28;20045;-70
2023/10/31 12:32:45;;;;;;;8.68;8.18;;;;;;;;;;5039086;28;19913;-70
2023/10/31 12:35:20;;;;;;;9.32;8.65;;;;;;;;;;5032785;28;20096;-69
2023/10/31 12:37:47;;;;;;;9.30;8.80;;;;;;;;;;5045778;28;20044;-70
2023/10/31 12:40:16;;;;;;;10.20;9.45;;;;;;;;;;5044338;28;20041;-70
2023/10/31 12:42:44;;;;;;;9.52;8.82;;;;;;;;;;5041576;28;20093;-70
2023/10/31 12:45:11;;;;;;;9.35;8.75;;;;;;;;;;5045529;28;20033;-70
2023/10/31 12:47:37;;;;;;;8.90;8.30;;;;;;;;;;5040102;28;20044;-70
2023/10/31 12:50:07;;;;;;;8.77;7.97;;;;;;;;;;5042963;28;20055;-71
2023/10/31 12:52:50;;;;;;;8.80;8.23;;;;;;;;;;5042511;28;20037;-70
2023/10/31 12:55:20;;;;;;;9.35;8.63;;;;;;;;;;5044076;28;20041;-70
2023/10/31 12:57:47;;;;;;;9.50;8.88;;;;;;;;;;5023628;28;20722;-70
2023/10/31 13:00:15;;;;;;;9.13;8.30;;;;;;;;;;5032054;28;20056;-70
2023/10/31 13:02:41;;;;;;;9.82;8.95;;;;;;;;;;5041236;28;20060;-70
2023/10/31 13:05:18;;;;;;;10.02;9.23;;;;;;;;;;5044176;28;20525;-70
2023/10/31 13:07:55;;;;;;;10.20;9.35;;;;;;;;;;5038664;28;20045;-70
2023/10/31 13:10:23;;;;;;;8.75;8.25;;;;;;;;;;5043204;28;20056;-70
2023/10/31 13:12:49;;;;;;;8.63;8.02;;;;;;;;;;5045095;28;20080;-70
2023/10/31 13:15:20;;;;;;;10.27;9.57;;;;;;;;;;5043639;28;20126;-70
2023/10/31 13:17:46;;;;;;;9.50;8.95;;;;;;;;;;5041152;28;22098;-70
2023/10/31 13:20:13;;;;;;;9.73;9.13;;;;;;;;;;5041218;28;20602;-69
2023/10/31 13:22:40;;;;;;;10.13;9.52;;;;;;;;;;5041540;28;20132;-70
2023/10/31 13:25:09;;;;;;;9.13;8.60;;;;;;;;;;5043902;28;20033;-70
2023/10/31 13:27:36;;;;;;;9.57;8.70;;;;;;;;;;5042036;28;20040;-70
2023/10/31 13:30:02;;;;;;;9.50;8.80;;;;;;;;;;5043730;28;20119;-71
2023/10/31 13:32:28;;;;;;;10.60;9.77;;;;;;;;;;5045793;28;20068;-71
2023/10/31 13:34:54;;;;;;;10.15;9.55;;;;;;;;;;5039129;28;20494;-71
2023/10/31 13:37:20;;;;;;;9.52;8.98;;;;;;;;;;5047323;28;20065;-70
2023/10/31 13:39:46;;;;;;;9.52;9.02;;;;;;;;;;5039772;28;20364;-70
2023/10/31 13:42:11;;;;;;;9.75;9.25;;;;;;;;;;5038264;28;20078;-71
2023/10/31 13:44:37;;;;;;;9.98;9.27;;;;;;;;;;5037625;28;20037;-70
2023/10/31 13:47:03;;;;;;;10.05;9.43;;;;;;;;;;5047130;28;20036;-71
2023/10/31 13:49:29;;;;;;;10.48;9.77;;;;;;;;;;5036215;28;20041;-71
2023/10/31 13:51:55;;;;;;;10.20;9.60;;;;;;;;;;5048500;28;20556;-71
2023/10/31 13:54:20;;;;;;;10.55;9.95;;;;;;;;;;5043279;28;20051;-71
2023/10/31 13:56:49;;;;;;;10.63;9.95;;;;;;;;;;5041790;28;20021;-71
2023/10/31 13:59:14;;;;;;;10.40;9.80;;;;;;;;;;5047461;28;20045;-71
2023/10/31 14:01:41;;;;;;;10.00;9.40;;;;;;;;;;5038760;28;20094;-71
2023/10/31 14:04:08;;;;;;;11.00;10.15;;;;;;;;;;5039146;28;20112;-71
2023/10/31 14:06:34;;;;;;;10.80;10.00;;;;;;;;;;5041050;28;20037;-71
2023/10/31 14:09:04;;;;;;;9.77;9.18;;;;;;;;;;5039044;28;20033;-71
2023/10/31 14:11:31;;;;;;;10.40;9.75;;;;;;;;;;5038113;28;20041;-72
2023/10/31 14:14:00;;;;;;;10.73;9.90;;;;;;;;;;5042065;28;20036;-72
2023/10/31 14:16:25;;;;;;;9.88;9.10;;;;;;;;;;5042059;28;20052;-71
2023/10/31 14:18:52;;;;;;;9.77;9.10;;;;;;;;;;5037309;28;20033;-71
2023/10/31 14:21:18;;;;;;;10.20;9.38;;;;;;;;;;5041799;28;20041;-72
2023/10/31 14:23:52;;;;;;;9.77;9.18;;;;;;;;;;5036678;28;20487;-71
2023/10/31 14:26:18;;;;;;;9.88;9.38;;;;;;;;;;5041943;28;20033;-71
2023/10/31 14:28:45;;;;;;;9.88;9.25;;;;;;;;;;5038249;28;20033;-71